EZY1480 EGPH-EGHH
Flight info
| Callsign | EZY1480 |
|---|---|
| Flight time | N/A |
| Altitude | 24000 |
| Route | TLA DCT ASRUS/N0402F230 DCT DCS/N0415F250 DCT WAL L151 PEPUL/N0403F230 Y322 BUGUP |
| Aircraft | A20N/M-SDE2E3FGHIRWXY/LB1 |
Departure
| Time | 2026-05-05 18:11 |
|---|---|
| Airport | Edinburgh Airport (EGPH) |
Arrival
| Time | N/A |
|---|---|
| Airport | Bournemouth Airport (EGHH) |
| Time | Latitude | Longitude | Altitude | Speed | Heading |
|---|---|---|---|---|---|
| 2026-05-05 17:48 | 55.94920 | -3.36429 | 105 ft | 0 kts | 147° |
| 2026-05-05 18:01 | 55.94924 | -3.36433 | 105 ft | 2 kts | 147° |
| 2026-05-05 18:02 | 55.94936 | -3.36447 | 105 ft | 2 kts | 147° |
| 2026-05-05 18:02 | 55.94949 | -3.36462 | 105 ft | 2 kts | 147° |
| 2026-05-05 18:02 | 55.94962 | -3.36476 | 105 ft | 2 kts | 156° |
| 2026-05-05 18:02 | 55.94976 | -3.36479 | 105 ft | 2 kts | 191° |
| 2026-05-05 18:03 | 55.94990 | -3.36468 | 105 ft | 2 kts | 221° |
| 2026-05-05 18:03 | 55.94996 | -3.36457 | 105 ft | 1 kts | 238° |
| 2026-05-05 18:03 | 55.94999 | -3.36447 | 105 ft | 0 kts | 239° |
| 2026-05-05 18:06 | 55.94981 | -3.36503 | 105 ft | 6 kts | 238° |
| 2026-05-05 18:06 | 55.94952 | -3.36586 | 105 ft | 9 kts | 238° |
| 2026-05-05 18:07 | 55.94914 | -3.36701 | 105 ft | 12 kts | 238° |
| 2026-05-05 18:07 | 55.94920 | -3.36841 | 105 ft | 12 kts | 293° |
| 2026-05-05 18:07 | 55.94894 | -3.36991 | 105 ft | 13 kts | 237° |
| 2026-05-05 18:07 | 55.94842 | -3.37142 | 105 ft | 15 kts | 238° |
| 2026-05-05 18:08 | 55.94783 | -3.37320 | 105 ft | 18 kts | 238° |
| 2026-05-05 18:08 | 55.94714 | -3.37522 | 105 ft | 20 kts | 238° |
| 2026-05-05 18:08 | 55.94638 | -3.37743 | 106 ft | 21 kts | 238° |
| 2026-05-05 18:08 | 55.94557 | -3.37980 | 107 ft | 23 kts | 237° |
| 2026-05-05 18:09 | 55.94473 | -3.38230 | 109 ft | 23 kts | 238° |
| 2026-05-05 18:09 | 55.94388 | -3.38482 | 112 ft | 23 kts | 239° |
| 2026-05-05 18:09 | 55.94304 | -3.38731 | 114 ft | 17 kts | 239° |
| 2026-05-05 18:09 | 55.94301 | -3.38878 | 115 ft | 8 kts | 323° |
| 2026-05-05 18:10 | 55.94311 | -3.38890 | 115 ft | 0 kts | 327° |
| 2026-05-05 18:10 | 55.94320 | -3.38900 | 115 ft | 6 kts | 327° |
| 2026-05-05 18:10 | 55.94399 | -3.38968 | 115 ft | 8 kts | 1° |
| 2026-05-05 18:10 | 55.94453 | -3.38858 | 114 ft | 26 kts | 59° |
| 2026-05-05 18:11 | 55.94690 | -3.38161 | 108 ft | 104 kts | 58° |
| 2026-05-05 18:11 | 55.95167 | -3.36733 | 283 ft | 149 kts | 60° |
| 2026-05-05 18:11 | 55.95694 | -3.35176 | 987 ft | 150 kts | 59° |
| 2026-05-05 18:11 | 55.96310 | -3.33682 | 1772 ft | 154 kts | 48° |
| 2026-05-05 18:12 | 55.97104 | -3.32430 | 2494 ft | 158 kts | 43° |
| 2026-05-05 18:12 | 55.97968 | -3.31078 | 3011 ft | 175 kts | 43° |
| 2026-05-05 18:12 | 55.98913 | -3.29576 | 3492 ft | 195 kts | 43° |
| 2026-05-05 18:12 | 56.00096 | -3.28167 | 3989 ft | 220 kts | 20° |
| 2026-05-05 18:13 | 56.01708 | -3.28078 | 4577 ft | 245 kts | 346° |
| 2026-05-05 18:13 | 56.03173 | -3.29771 | 5241 ft | 265 kts | 311° |
| 2026-05-05 18:13 | 56.03923 | -3.32772 | 5767 ft | 271 kts | 279° |
| 2026-05-05 18:13 | 56.03697 | -3.36114 | 5986 ft | 276 kts | 251° |
| 2026-05-05 18:14 | 56.02931 | -3.39263 | 5992 ft | 274 kts | 248° |
| 2026-05-05 18:14 | 56.02209 | -3.42381 | 5987 ft | 273 kts | 251° |
| 2026-05-05 18:14 | 56.01593 | -3.45611 | 5987 ft | 273 kts | 255° |
| 2026-05-05 18:14 | 56.01075 | -3.48823 | 5987 ft | 272 kts | 257° |
| 2026-05-05 18:15 | 56.00591 | -3.52104 | 5988 ft | 272 kts | 257° |
| 2026-05-05 18:15 | 56.00126 | -3.55356 | 5988 ft | 272 kts | 257° |
| 2026-05-05 18:15 | 55.99661 | -3.58631 | 5987 ft | 272 kts | 258° |
| 2026-05-05 18:15 | 55.99189 | -3.61955 | 6142 ft | 278 kts | 257° |
| 2026-05-05 18:16 | 55.98707 | -3.65321 | 7076 ft | 281 kts | 257° |
| 2026-05-05 18:16 | 55.98231 | -3.68620 | 8325 ft | 276 kts | 258° |
| 2026-05-05 18:16 | 55.97759 | -3.71898 | 9401 ft | 276 kts | 258° |
| 2026-05-05 18:16 | 55.97286 | -3.75189 | 10403 ft | 277 kts | 258° |
| 2026-05-05 18:17 | 55.96807 | -3.78531 | 11132 ft | 289 kts | 258° |
| 2026-05-05 18:17 | 55.96298 | -3.82086 | 11638 ft | 307 kts | 258° |
| 2026-05-05 18:17 | 55.95745 | -3.85909 | 12094 ft | 325 kts | 257° |
| 2026-05-05 18:17 | 55.95164 | -3.89907 | 12497 ft | 344 kts | 257° |
| 2026-05-05 18:18 | 55.94538 | -3.94198 | 12872 ft | 362 kts | 257° |
| 2026-05-05 18:18 | 55.93931 | -3.98607 | 13438 ft | 371 kts | 259° |
| 2026-05-05 18:18 | 55.93368 | -4.03097 | 14185 ft | 376 kts | 255° |
| 2026-05-05 18:18 | 55.92204 | -4.07255 | 14901 ft | 385 kts | 236° |
| 2026-05-05 18:19 | 55.90292 | -4.10674 | 15596 ft | 394 kts | 218° |
| 2026-05-05 18:19 | 55.87873 | -4.12895 | 16282 ft | 404 kts | 201° |
| 2026-05-05 18:19 | 55.85123 | -4.14248 | 16980 ft | 407 kts | 200° |
| 2026-05-05 18:19 | 55.82508 | -4.15999 | 17621 ft | 410 kts | 203° |
| 2026-05-05 18:20 | 55.79683 | -4.17129 | 18223 ft | 419 kts | 187° |
| 2026-05-05 18:20 | 55.76770 | -4.16696 | 18859 ft | 428 kts | 168° |
| 2026-05-05 18:20 | 55.74016 | -4.14604 | 19498 ft | 436 kts | 150° |
| 2026-05-05 18:20 | 55.71488 | -4.11559 | 20175 ft | 438 kts | 147° |
| 2026-05-05 18:21 | 55.68982 | -4.08488 | 20748 ft | 442 kts | 147° |
| 2026-05-05 18:21 | 55.66413 | -4.05370 | 21309 ft | 446 kts | 147° |
| 2026-05-05 18:21 | 55.63846 | -4.02289 | 21871 ft | 449 kts | 148° |
| 2026-05-05 18:21 | 55.61261 | -3.99211 | 22414 ft | 452 kts | 148° |
| 2026-05-05 18:22 | 55.58640 | -3.96109 | 22935 ft | 455 kts | 148° |